createdAt,value
2023-04-17T00:00:32.139Z,96971.63
2023-04-17T00:03:01.418Z,96972.66
2023-04-17T00:05:32.046Z,96967.81
2023-04-17T00:08:00.772Z,96967.97
2023-04-17T00:10:28.963Z,96967.78
2023-04-17T00:12:56.990Z,96958.09
2023-04-17T00:15:26.620Z,96963.94
2023-04-17T00:17:54.687Z,96960.72
2023-04-17T00:20:22.785Z,96963.75
2023-04-17T00:22:51.146Z,96962.94
2023-04-17T00:25:19.136Z,96962.75
2023-04-17T00:27:47.189Z,96963.75
2023-04-17T00:30:15.414Z,96955.25
2023-04-17T00:32:44.836Z,96963.75
2023-04-17T00:35:12.997Z,96962.72
2023-04-17T00:37:41.082Z,96953.44
2023-04-17T00:40:11.560Z,96950.00
2023-04-17T00:42:39.547Z,96952.44
2023-04-17T00:45:10.899Z,96959.31
2023-04-17T00:47:39.955Z,96952.22
2023-04-17T00:50:11.022Z,96947.16
2023-04-17T00:52:39.082Z,96952.19
2023-04-17T00:55:09.082Z,96944.09
2023-04-17T00:57:37.540Z,96945.13
2023-04-17T01:00:09.448Z,96945.94
2023-04-17T01:02:38.176Z,96946.13
2023-04-17T01:05:07.307Z,96944.94
2023-04-17T01:07:38.583Z,96945.56
2023-04-17T01:10:08.356Z,96943.91
2023-04-17T01:12:36.489Z,96943.31
2023-04-17T01:15:05.578Z,96943.72
2023-04-17T01:17:33.885Z,96945.94
2023-04-17T01:20:01.944Z,96935.41
2023-04-17T01:22:30.180Z,96945.50
2023-04-17T01:25:01.023Z,96942.69
2023-04-17T01:27:35.670Z,96935.59
2023-04-17T01:30:04.001Z,96938.63
2023-04-17T01:32:36.121Z,96942.69
2023-04-17T01:35:04.960Z,96939.47
2023-04-17T01:37:33.092Z,96940.66
2023-04-17T01:40:05.241Z,96935.59
2023-04-17T01:42:33.331Z,96941.66
2023-04-17T01:45:01.565Z,96940.44
2023-04-17T01:47:29.589Z,96937.22
2023-04-17T01:49:57.630Z,96942.69
2023-04-17T01:52:25.728Z,96940.66
2023-04-17T01:54:53.786Z,96936.19
2023-04-17T01:57:23.202Z,96945.13
2023-04-17T01:59:51.230Z,96939.84
2023-04-17T02:02:19.428Z,96934.59
2023-04-17T02:04:47.494Z,96933.38
2023-04-17T02:07:16.580Z,96935.41
2023-04-17T02:09:44.555Z,96940.06
2023-04-17T02:12:12.540Z,96932.16
2023-04-17T02:14:42.009Z,96926.09
2023-04-17T02:17:10.000Z,96924.47
2023-04-17T02:19:38.060Z,96930.53
2023-04-17T02:22:06.085Z,96928.09
2023-04-17T02:24:34.089Z,96928.31
2023-04-17T02:27:02.792Z,96929.13
2023-04-17T02:29:30.837Z,96930.34
2023-04-17T02:32:00.200Z,96936.19
2023-04-17T02:34:28.377Z,96939.47
2023-04-17T02:36:57.230Z,96933.38
2023-04-17T02:39:25.524Z,96930.53
2023-04-17T02:41:53.637Z,96934.19
2023-04-17T02:44:21.644Z,96929.13
2023-04-17T02:46:49.727Z,96934.97
2023-04-17T02:49:19.178Z,96938.00
2023-04-17T02:51:49.212Z,96932.13
2023-04-17T02:54:17.268Z,96929.13
2023-04-17T02:56:45.586Z,96930.72
2023-04-17T02:59:14.147Z,96933.75
2023-04-17T03:01:42.321Z,96934.97
2023-04-17T03:04:10.518Z,96931.56
2023-04-17T03:06:39.936Z,96935.38
2023-04-17T03:09:08.538Z,96933.56
2023-04-17T03:11:36.547Z,96931.56
2023-04-17T03:14:04.531Z,96933.94
2023-04-17T03:16:32.629Z,96932.75
2023-04-17T03:19:03.347Z,96933.56
2023-04-17T03:21:31.462Z,96934.16
2023-04-17T03:24:01.525Z,96930.09
2023-04-17T03:26:29.981Z,96932.53
2023-04-17T03:29:00.941Z,96932.53
2023-04-17T03:31:29.003Z,96931.31
2023-04-17T03:33:57.118Z,96931.13
2023-04-17T03:36:27.100Z,96937.19
2023-04-17T03:38:57.814Z,96933.75
2023-04-17T03:41:27.248Z,96929.13
2023-04-17T03:43:55.466Z,96934.97
2023-04-17T03:46:23.518Z,96935.16
2023-04-17T03:48:51.774Z,96929.03
2023-04-17T03:51:19.955Z,96932.53
2023-04-17T03:53:49.313Z,96936.78
2023-04-17T03:56:17.626Z,96936.19
2023-04-17T03:58:47.841Z,96952.34
2023-04-17T04:01:18.744Z,96945.09
2023-04-17T04:04:03.423Z,96941.44
2023-04-17T04:06:31.921Z,96951.09
2023-04-17T04:09:00.502Z,96950.34
2023-04-17T04:11:29.253Z,96949.53
2023-04-17T04:13:58.684Z,96949.13
2023-04-17T04:16:27.275Z,96956.03
2023-04-17T04:19:04.053Z,96959.88
2023-04-17T04:21:32.154Z,96960.47
2023-04-17T04:24:00.166Z,96959.28
2023-04-17T04:26:28.743Z,96958.84
2023-04-17T04:29:00.471Z,96966.53
2023-04-17T04:31:39.671Z,96958.84
2023-04-17T04:34:09.683Z,96966.34
2023-04-17T04:36:41.894Z,96964.31
2023-04-17T04:39:20.260Z,96959.47
2023-04-17T04:41:50.357Z,96957.44
2023-04-17T04:44:21.435Z,96962.28
2023-04-17T04:46:53.017Z,96965.13
2023-04-17T04:49:21.465Z,96959.69
2023-04-17T04:51:49.591Z,96959.69
2023-04-17T04:54:17.747Z,96963.72
2023-04-17T04:56:55.669Z,96966.75
2023-04-17T04:59:25.416Z,96960.28
2023-04-17T05:02:04.401Z,96961.28
2023-04-17T05:04:33.149Z,96971.09
2023-04-17T05:07:04.897Z,96969.06
2023-04-17T05:09:35.594Z,96981.75
2023-04-17T05:12:04.981Z,96969.81
2023-04-17T05:14:35.204Z,96972.44
2023-04-17T05:17:03.550Z,96980.94
2023-04-17T05:19:31.652Z,96982.34
2023-04-17T05:22:04.134Z,96983.56
2023-04-17T05:24:36.175Z,96975.66
2023-04-17T05:27:04.451Z,96975.66
2023-04-17T05:29:33.897Z,96979.91
2023-04-17T05:32:02.211Z,96976.88
2023-04-17T05:34:47.813Z,96984.78
2023-04-17T05:37:17.806Z,96979.09
2023-04-17T05:39:46.002Z,96977.88
2023-04-17T05:42:14.059Z,96986.78
2023-04-17T05:44:43.434Z,96986.38
2023-04-17T05:47:11.477Z,96984.31
2023-04-17T05:49:39.576Z,96986.78
2023-04-17T05:52:07.707Z,96984.38
2023-04-17T05:54:40.107Z,96990.25
2023-04-17T05:57:09.837Z,96991.22
2023-04-17T05:59:38.551Z,96991.22
2023-04-17T06:02:08.939Z,96990.41
2023-04-17T06:04:37.324Z,96982.97
2023-04-17T06:07:08.195Z,96983.94
2023-04-17T06:09:37.603Z,96987.16
2023-04-17T06:12:05.994Z,96991.22
2023-04-17T06:14:34.668Z,96990.41
2023-04-17T06:17:09.007Z,96991.41
2023-04-17T06:19:37.228Z,96995.09
2023-04-17T06:22:05.507Z,96992.66
2023-04-17T06:24:33.714Z,97001.38
2023-04-17T06:27:52.750Z,97007.22
2023-04-17T06:30:21.362Z,97007.81
2023-04-17T06:32:54.393Z,97009.03
2023-04-17T06:35:22.697Z,96997.09
2023-04-17T06:37:59.683Z,97004.78
2023-04-17T06:40:28.046Z,97005.44
2023-04-17T06:42:56.135Z,97009.03
2023-04-17T06:45:27.876Z,97011.50
2023-04-17T06:47:57.482Z,97002.19
2023-04-17T06:50:25.864Z,97009.47
2023-04-17T06:52:53.857Z,97011.69
2023-04-17T06:55:22.436Z,97006.84
2023-04-17T06:57:54.989Z,97006.22
2023-04-17T07:00:25.988Z,97014.47
2023-04-17T07:02:54.156Z,97008.81
2023-04-17T07:05:23.593Z,97019.56
2023-04-17T07:07:55.863Z,97022.00
2023-04-17T07:10:24.048Z,97016.72
2023-04-17T07:12:52.120Z,97021.16
2023-04-17T07:15:23.738Z,97018.13
2023-04-17T07:17:51.956Z,97023.00
2023-04-17T07:20:20.138Z,97022.78
2023-04-17T07:22:49.884Z,97021.41
2023-04-17T07:25:18.277Z,97023.41
2023-04-17T07:27:46.347Z,97025.63
2023-04-17T07:30:14.967Z,97033.38
2023-04-17T07:32:43.170Z,97032.56
2023-04-17T07:35:12.639Z,97035.41
2023-04-17T07:37:41.179Z,97028.13
2023-04-17T07:40:14.839Z,97028.25
2023-04-17T07:42:42.904Z,97036.00
2023-04-17T07:45:12.520Z,97031.50
2023-04-17T07:47:40.648Z,97032.97
2023-04-17T07:50:11.396Z,97031.31
2023-04-17T07:53:10.697Z,97037.00
2023-04-17T07:55:40.062Z,97041.25
2023-04-17T07:58:09.362Z,97044.28
2023-04-17T08:00:37.423Z,97043.88
2023-04-17T08:03:06.183Z,97041.44
2023-04-17T08:05:34.862Z,97044.06
2023-04-17T08:08:02.938Z,97045.50
2023-04-17T08:10:31.135Z,97050.75
2023-04-17T08:13:02.645Z,97049.16
2023-04-17T08:15:30.970Z,97054.81
2023-04-17T08:17:59.088Z,97047.56
2023-04-17T08:20:27.294Z,97055.84
2023-04-17T08:22:55.342Z,97059.50
2023-04-17T08:25:23.443Z,97052.22
2023-04-17T08:27:51.643Z,97053.66
2023-04-17T08:30:21.179Z,97053.84
2023-04-17T08:32:52.076Z,97056.47
2023-04-17T08:35:20.808Z,97057.53
2023-04-17T08:37:49.025Z,97061.75
2023-04-17T08:40:18.665Z,97066.84
2023-04-17T08:42:49.477Z,97067.25
2023-04-17T08:45:18.276Z,97063.56
2023-04-17T08:47:48.215Z,97060.56
2023-04-17T08:50:19.317Z,97068.28
2023-04-17T08:52:49.971Z,97066.84
2023-04-17T08:55:20.379Z,97070.91
2023-04-17T08:57:56.330Z,97066.03
2023-04-17T09:00:28.891Z,97071.28
2023-04-17T09:03:00.366Z,97067.88
2023-04-17T09:05:33.201Z,97067.88
2023-04-17T09:08:13.100Z,97066.47
2023-04-17T09:10:43.462Z,97059.81
2023-04-17T09:13:14.575Z,97069.94
2023-04-17T09:15:44.462Z,97066.28
2023-04-17T09:18:28.341Z,97071.16
2023-04-17T09:20:57.629Z,97073.00
2023-04-17T09:23:29.736Z,97070.16
2023-04-17T09:26:08.681Z,97069.38
2023-04-17T09:28:39.523Z,97067.72
2023-04-17T09:31:24.396Z,97073.19
2023-04-17T09:34:00.118Z,97074.03
2023-04-17T09:36:30.434Z,97073.00
2023-04-17T09:38:59.360Z,97075.22
2023-04-17T09:41:29.581Z,97072.00
2023-04-17T09:44:01.868Z,97081.31
2023-04-17T09:46:37.883Z,97081.72
2023-04-17T09:49:20.815Z,97075.44
2023-04-17T09:51:49.341Z,97080.53
2023-04-17T09:54:20.050Z,97077.50
2023-04-17T09:56:49.628Z,97070.59
2023-04-17T09:59:18.252Z,97079.50
2023-04-17T10:01:47.062Z,97079.31
2023-04-17T10:04:17.092Z,97085.19
2023-04-17T10:06:45.868Z,97072.81
2023-04-17T10:09:13.960Z,97078.72
2023-04-17T10:11:46.093Z,97075.06
2023-04-17T10:14:21.263Z,97073.06
2023-04-17T10:16:50.494Z,97075.88
2023-04-17T10:19:29.544Z,97069.19
2023-04-17T10:22:34.093Z,97067.78
2023-04-17T10:25:23.789Z,97068.16
2023-04-17T10:28:00.008Z,97063.53
2023-04-17T10:30:54.927Z,97061.50
2023-04-17T10:33:27.906Z,97065.53
2023-04-17T10:35:57.490Z,97066.56
2023-04-17T10:38:34.267Z,97059.25
2023-04-17T10:41:05.712Z,97056.84
2023-04-17T10:43:33.979Z,97046.91
2023-04-17T10:46:07.215Z,97053.00
2023-04-17T10:48:38.441Z,97043.88
2023-04-17T10:51:44.585Z,97045.28
2023-04-17T10:54:15.536Z,97045.91
2023-04-17T10:56:46.174Z,97043.84
2023-04-17T10:59:16.933Z,97039.59
2023-04-17T11:02:04.374Z,97039.00
2023-04-17T11:04:33.818Z,97039.38
2023-04-17T11:07:03.695Z,97037.16
2023-04-17T11:09:31.757Z,97040.03
2023-04-17T11:12:03.080Z,97042.66
2023-04-17T11:14:32.309Z,97035.13
2023-04-17T11:17:02.073Z,97034.72
2023-04-17T11:19:30.525Z,97031.91
2023-04-17T11:22:02.402Z,97033.31
2023-04-17T11:24:33.193Z,97034.91
2023-04-17T11:27:03.327Z,97038.75
2023-04-17T11:29:31.633Z,97034.50
2023-04-17T11:32:00.773Z,97029.41
2023-04-17T11:34:32.098Z,97032.91
2023-04-17T11:37:02.213Z,97023.16
2023-04-17T11:39:34.190Z,97032.50
2023-04-17T11:42:03.741Z,97031.69
2023-04-17T11:44:31.855Z,97036.38
2023-04-17T11:47:00.328Z,97034.13
2023-04-17T11:49:30.239Z,97033.13
2023-04-17T11:52:02.057Z,97048.53
2023-04-17T11:54:35.799Z,97044.44
2023-04-17T11:57:06.843Z,97047.28
2023-04-17T11:59:36.892Z,97043.66
2023-04-17T12:02:08.927Z,97047.69
2023-04-17T12:04:39.738Z,97042.03
2023-04-17T12:07:21.582Z,97044.06
2023-04-17T12:09:57.946Z,97044.88
2023-04-17T12:12:26.135Z,97043.66
2023-04-17T12:14:54.144Z,97039.38
2023-04-17T12:17:22.249Z,97040.00
2023-04-17T12:19:50.952Z,97052.38
2023-04-17T12:22:19.155Z,97041.63
2023-04-17T12:24:47.244Z,97043.06
2023-04-17T12:27:17.285Z,97038.41
2023-04-17T12:29:45.420Z,97036.75
2023-04-17T12:32:13.591Z,97034.69
2023-04-17T12:34:41.810Z,97032.69
2023-04-17T12:37:10.067Z,97025.34
2023-04-17T12:39:38.171Z,97022.09
2023-04-17T12:42:06.427Z,97019.41
2023-04-17T12:44:35.914Z,97023.06
2023-04-17T12:47:04.042Z,97010.69
2023-04-17T12:49:32.170Z,97007.44
2023-04-17T12:52:02.962Z,97009.25
2023-04-17T12:54:31.863Z,97014.69
2023-04-17T12:57:00.004Z,97012.66
2023-04-17T12:59:28.052Z,97005.72
2023-04-17T13:01:57.650Z,97014.84
2023-04-17T13:04:26.040Z,97013.44
2023-04-17T13:06:54.210Z,97010.41
2023-04-17T13:09:22.231Z,97008.81
2023-04-17T13:11:50.799Z,97013.09
2023-04-17T13:14:18.917Z,97013.47
2023-04-17T13:16:48.695Z,97017.38
2023-04-17T13:19:18.133Z,97011.69
2023-04-17T13:21:46.314Z,97020.41
2023-04-17T13:24:14.982Z,97020.63
2023-04-17T13:26:43.155Z,97018.41
2023-04-17T13:29:11.780Z,97010.50
2023-04-17T13:31:39.988Z,97010.72
2023-04-17T13:34:08.352Z,97010.72
2023-04-17T13:36:38.043Z,97012.31
2023-04-17T13:39:06.272Z,97008.88
2023-04-17T13:41:34.413Z,97000.97
2023-04-17T13:44:02.614Z,97009.91
2023-04-17T13:46:31.786Z,97004.22
2023-04-17T13:49:00.362Z,97011.91
2023-04-17T13:51:28.609Z,97008.69
2023-04-17T13:53:59.637Z,97008.47
2023-04-17T13:56:28.456Z,97008.06
2023-04-17T13:58:57.476Z,97003.22
2023-04-17T14:01:25.782Z,97005.47
2023-04-17T14:03:54.264Z,97005.03
2023-04-17T14:06:22.409Z,97010.53
2023-04-17T14:08:50.503Z,97007.31
2023-04-17T14:11:19.877Z,97005.13
2023-04-17T14:13:47.952Z,97004.09
2023-04-17T14:16:16.125Z,97004.28
2023-04-17T14:18:44.247Z,97005.50
2023-04-17T14:21:12.376Z,96998.63
2023-04-17T14:23:40.542Z,96999.63
2023-04-17T14:26:08.789Z,97000.84
2023-04-17T14:28:38.294Z,97000.59
2023-04-17T14:31:07.017Z,96992.09
2023-04-17T14:33:35.320Z,96991.28
2023-04-17T14:36:05.666Z,96996.16
2023-04-17T14:38:35.308Z,96995.13
2023-04-17T14:41:03.443Z,96987.22
2023-04-17T14:43:31.833Z,96984.00
2023-04-17T14:46:01.529Z,96982.75
2023-04-17T14:48:30.356Z,96982.97
2023-04-17T14:51:01.586Z,96979.91
2023-04-17T14:53:29.728Z,96983.34
2023-04-17T14:55:59.074Z,96978.50
2023-04-17T14:58:27.660Z,96985.59
2023-04-17T15:00:55.706Z,96982.38
2023-04-17T15:03:25.422Z,96984.16
2023-04-17T15:05:53.908Z,96980.72
2023-04-17T15:08:22.018Z,96992.09
2023-04-17T15:10:51.562Z,96991.09
2023-04-17T15:13:19.922Z,96989.69
2023-04-17T15:15:47.992Z,96989.66
2023-04-17T15:18:23.779Z,96979.50
2023-04-17T15:20:52.044Z,96985.38
2023-04-17T15:23:21.192Z,96982.97
2023-04-17T15:25:49.483Z,96989.47
2023-04-17T15:28:17.577Z,96987.84
2023-04-17T15:30:45.704Z,96987.84
2023-04-17T15:33:13.814Z,96974.44
2023-04-17T15:35:43.334Z,96985.00
2023-04-17T15:38:11.553Z,96986.00
2023-04-17T15:40:39.735Z,96987.41
2023-04-17T15:43:10.574Z,96987.63
2023-04-17T15:45:38.847Z,96987.00
2023-04-17T15:48:07.741Z,96990.47
2023-04-17T15:50:35.920Z,96993.31
2023-04-17T15:53:05.366Z,96999.19
2023-04-17T15:55:36.409Z,96994.53
2023-04-17T15:58:04.815Z,96994.13
2023-04-17T16:00:33.968Z,96994.38
2023-04-17T16:03:02.352Z,96995.34
2023-04-17T16:05:31.439Z,96992.50
2023-04-17T16:08:02.657Z,96988.66
2023-04-17T16:10:32.102Z,96988.28
2023-04-17T16:13:04.017Z,96987.47
2023-04-17T16:15:32.152Z,96981.81
2023-04-17T16:18:00.341Z,96984.81
2023-04-17T16:20:29.474Z,96989.06
2023-04-17T16:22:57.611Z,96989.69
2023-04-17T16:25:28.165Z,96988.84
2023-04-17T16:27:57.812Z,96995.78
2023-04-17T16:30:25.917Z,96988.69
2023-04-17T16:32:54.058Z,96991.50
2023-04-17T16:35:22.291Z,96999.03
2023-04-17T16:37:50.522Z,96994.16
2023-04-17T16:40:19.708Z,96997.41
2023-04-17T16:42:48.806Z,96995.34
2023-04-17T16:45:18.497Z,96995.97
2023-04-17T16:47:46.615Z,96993.34
2023-04-17T16:50:14.772Z,96991.91
2023-04-17T16:52:42.815Z,96996.22
2023-04-17T16:55:11.396Z,96995.00
2023-04-17T16:57:42.745Z,96994.56
2023-04-17T17:00:12.886Z,96999.03
2023-04-17T17:02:42.633Z,97003.28
2023-04-17T17:05:16.736Z,97009.94
2023-04-17T17:07:44.888Z,97009.59
2023-04-17T17:10:13.120Z,97002.06
2023-04-17T17:12:41.297Z,97005.09
2023-04-17T17:15:10.288Z,97011.41
2023-04-17T17:17:38.395Z,97010.38
2023-04-17T17:20:11.295Z,97006.13
2023-04-17T17:22:39.392Z,97007.16
2023-04-17T17:25:08.854Z,97012.03
2023-04-17T17:27:36.857Z,97019.09
2023-04-17T17:30:05.670Z,97012.44
2023-04-17T17:32:33.794Z,97016.84
2023-04-17T17:35:01.892Z,97012.19
2023-04-17T17:37:31.503Z,97010.38
2023-04-17T17:39:59.676Z,97007.72
2023-04-17T17:42:27.832Z,97012.19
2023-04-17T17:44:56.199Z,97007.13
2023-04-17T17:47:24.877Z,97018.09
2023-04-17T17:49:53.125Z,97020.31
2023-04-17T17:52:21.517Z,97020.31
2023-04-17T17:54:51.024Z,97019.31
2023-04-17T17:57:19.085Z,97022.16
2023-04-17T17:59:47.135Z,97021.53
2023-04-17T18:02:15.847Z,97025.00
2023-04-17T18:04:44.180Z,97023.38
2023-04-17T18:07:12.322Z,97017.88
2023-04-17T18:09:40.344Z,97023.38
2023-04-17T18:12:09.780Z,97019.72
2023-04-17T18:14:37.815Z,97024.38
2023-04-17T18:17:06.161Z,97028.03
2023-04-17T18:19:34.456Z,97026.81
2023-04-17T18:22:03.117Z,97022.16
2023-04-17T18:24:31.726Z,97019.94
2023-04-17T18:26:59.744Z,97029.06
2023-04-17T18:29:29.193Z,97024.59
2023-04-17T18:32:21.686Z,97024.19
2023-04-17T18:34:50.800Z,97032.09
2023-04-17T18:37:18.788Z,97036.34
2023-04-17T18:39:46.878Z,97031.28
2023-04-17T18:42:18.618Z,97038.38
2023-04-17T18:44:48.238Z,97034.94
2023-04-17T18:47:16.437Z,97048.13
2023-04-17T18:49:44.476Z,97046.06
2023-04-17T18:52:16.212Z,97044.88
2023-04-17T18:54:44.237Z,97043.66
2023-04-17T18:57:12.261Z,97041.81
2023-04-17T18:59:43.039Z,97043.44
2023-04-17T19:02:12.695Z,97055.84
2023-04-17T19:04:40.747Z,97045.25
2023-04-17T19:07:08.928Z,97046.47
2023-04-17T19:09:37.003Z,97047.31
2023-04-17T19:12:05.981Z,97056.63
2023-04-17T19:14:34.015Z,97056.22
2023-04-17T19:17:02.041Z,97058.88
2023-04-17T19:19:31.374Z,97061.91
2023-04-17T19:21:59.372Z,97060.69
2023-04-17T19:24:27.346Z,97065.75
2023-04-17T19:26:55.338Z,97060.69
2023-04-17T19:29:23.332Z,97059.47
2023-04-17T19:31:51.436Z,97058.84
2023-04-17T19:34:19.496Z,97061.09
2023-04-17T19:36:48.836Z,97066.75
2023-04-17T19:39:16.882Z,97070.22
2023-04-17T19:41:50.644Z,97063.53
2023-04-17T19:44:18.893Z,97068.38
2023-04-17T19:46:46.897Z,97063.28
2023-04-17T19:49:15.597Z,97064.72
2023-04-17T19:51:43.647Z,97067.16
2023-04-17T19:54:13.005Z,97066.56
2023-04-17T19:56:40.980Z,97064.50
2023-04-17T19:59:12.311Z,97061.06
2023-04-17T20:01:43.429Z,97065.09
2023-04-17T20:04:12.055Z,97058.63
2023-04-17T20:06:40.881Z,97052.13
2023-04-17T20:09:09.007Z,97050.72
2023-04-17T20:11:38.425Z,97051.72
2023-04-17T20:14:06.662Z,97051.34
2023-04-17T20:16:34.772Z,97053.97
2023-04-17T20:19:02.865Z,97052.94
2023-04-17T20:21:30.886Z,97051.72
2023-04-17T20:23:59.442Z,97050.88
2023-04-17T20:26:27.759Z,97057.97
2023-04-17T20:28:57.112Z,97048.06
2023-04-17T20:31:25.297Z,97044.97
2023-04-17T20:33:53.325Z,97051.63
2023-04-17T20:36:21.355Z,97042.72
2023-04-17T20:38:49.349Z,97055.28
2023-04-17T20:41:17.995Z,97051.41
2023-04-17T20:43:45.992Z,97051.59
2023-04-17T20:46:15.401Z,97057.25
2023-04-17T20:48:43.526Z,97049.16
2023-04-17T20:51:11.496Z,97042.66
2023-04-17T20:53:39.513Z,97047.09
2023-04-17T20:56:07.629Z,97043.22
2023-04-17T20:58:35.710Z,97041.44
2023-04-17T21:01:03.810Z,97039.56
2023-04-17T21:03:34.319Z,97037.31
2023-04-17T21:06:02.406Z,97047.59
2023-04-17T21:08:30.500Z,97038.09
2023-04-17T21:10:58.561Z,97042.75
2023-04-17T21:13:26.818Z,97044.09
2023-04-17T21:15:55.009Z,97041.47
2023-04-17T21:18:23.096Z,97040.28
2023-04-17T21:20:52.593Z,97036.41
2023-04-17T21:23:20.689Z,97041.25
2023-04-17T21:25:51.693Z,97038.19
2023-04-17T21:28:19.802Z,97041.84
2023-04-17T21:30:47.937Z,97031.69
2023-04-17T21:33:16.036Z,97037.53
2023-04-17T21:35:44.082Z,97043.16
2023-04-17T21:38:13.555Z,97032.28
2023-04-17T21:40:51.174Z,97032.66
2023-04-17T21:43:19.681Z,97033.84
2023-04-17T21:45:47.728Z,97030.22
2023-04-17T21:48:16.266Z,97035.53
2023-04-17T21:50:44.460Z,97035.47
2023-04-17T21:53:15.832Z,97034.88
2023-04-17T21:55:43.820Z,97035.88
2023-04-17T21:58:12.105Z,97028.59
2023-04-17T22:00:40.101Z,97021.72
2023-04-17T22:03:12.795Z,97027.97
2023-04-17T22:05:42.244Z,97027.31
2023-04-17T22:08:10.695Z,97024.88
2023-04-17T22:10:40.147Z,97023.28
2023-04-17T22:13:09.300Z,97018.41
2023-04-17T22:15:37.625Z,97016.16
2023-04-17T22:18:06.332Z,97010.28
2023-04-17T22:20:34.675Z,97016.56
2023-04-17T22:23:02.745Z,97009.47
2023-04-17T22:25:30.977Z,97013.94
2023-04-17T22:28:00.373Z,97008.66
2023-04-17T22:30:28.358Z,97009.91
2023-04-17T22:32:57.164Z,97008.22
2023-04-17T22:35:25.465Z,97006.84
2023-04-17T22:37:53.440Z,97007.84
2023-04-17T22:40:21.705Z,97002.97
2023-04-17T22:42:51.492Z,97004.41
2023-04-17T22:45:20.903Z,97002.41
2023-04-17T22:47:48.927Z,97007.44
2023-04-17T22:50:17.638Z,97010.66
2023-04-17T22:52:45.771Z,97002.19
2023-04-17T22:55:13.931Z,97009.44
2023-04-17T22:57:42.009Z,97002.97
2023-04-17T23:00:11.450Z,97008.25
2023-04-17T23:02:41.719Z,97003.16
2023-04-17T23:05:10.653Z,96998.50
2023-04-17T23:07:39.368Z,96999.94
2023-04-17T23:10:08.447Z,96999.69
2023-04-17T23:12:36.560Z,97000.50
2023-04-17T23:15:04.969Z,96992.78
2023-04-17T23:17:33.120Z,96996.63
2023-04-17T23:20:02.522Z,97003.09
2023-04-17T23:22:33.965Z,97002.50
2023-04-17T23:25:02.030Z,96997.25
2023-04-17T23:27:30.104Z,96998.88
2023-04-17T23:29:59.437Z,96992.59
2023-04-17T23:32:27.629Z,96987.94
2023-04-17T23:34:55.711Z,96984.50
2023-04-17T23:37:26.311Z,96988.19
2023-04-17T23:39:54.418Z,96987.53
2023-04-17T23:42:22.467Z,96986.34
2023-04-17T23:44:50.506Z,96975.78
2023-04-17T23:47:18.548Z,96991.41
2023-04-17T23:49:47.382Z,96979.91
2023-04-17T23:52:15.468Z,96977.44
2023-04-17T23:54:44.813Z,96974.41
2023-04-17T23:57:12.870Z,96967.16
2023-04-17T23:59:41.016Z,96981.31
